createdAt,value
2022-10-18T00:00:22.012Z,17.10
2022-10-18T00:02:50.788Z,12.23
2022-10-18T00:05:18.426Z,10.57
2022-10-18T00:07:45.852Z,8.02
2022-10-18T00:10:13.299Z,8.27
2022-10-18T00:12:41.457Z,8.93
2022-10-18T00:15:10.251Z,11.10
2022-10-18T00:17:38.677Z,10.45
2022-10-18T00:20:08.833Z,6.13
2022-10-18T00:22:37.593Z,7.53
2022-10-18T00:25:06.137Z,9.43
2022-10-18T00:27:34.520Z,7.20
2022-10-18T00:30:01.992Z,7.60
2022-10-18T00:32:29.564Z,6.50
2022-10-18T00:34:57.287Z,7.53
2022-10-18T00:37:26.059Z,7.87
2022-10-18T00:39:53.507Z,7.10
2022-10-18T00:42:23.565Z,8.27
2022-10-18T00:45:20.856Z,8.30
2022-10-18T00:47:53.084Z,7.90
2022-10-18T00:50:22.191Z,9.50
2022-10-18T00:52:54.057Z,8.55
2022-10-18T00:55:21.848Z,10.02
2022-10-18T00:57:50.705Z,10.20
2022-10-18T01:00:19.485Z,9.82
2022-10-18T01:02:47.825Z,7.40
2022-10-18T01:05:17.616Z,39.78
2022-10-18T01:08:08.399Z,108.22
2022-10-18T01:10:42.648Z,68.03
2022-10-18T01:13:25.922Z,73.03
2022-10-18T01:16:01.136Z,71.40
2022-10-18T01:18:34.945Z,26.50
2022-10-18T01:21:17.389Z,8.02
2022-10-18T01:24:16.323Z,7.68
2022-10-18T01:27:03.081Z,9.27
2022-10-18T01:29:43.274Z,8.07
2022-10-18T01:32:15.897Z,7.85
2022-10-18T01:34:46.720Z,10.40
2022-10-18T01:37:17.922Z,7.00
2022-10-18T01:39:47.743Z,8.98
2022-10-18T01:42:19.714Z,6.40
2022-10-18T01:44:49.344Z,8.15
2022-10-18T01:47:19.177Z,7.22
2022-10-18T01:49:46.845Z,8.55
2022-10-18T01:52:15.315Z,9.85
2022-10-18T01:54:45.998Z,8.40
2022-10-18T01:57:22.797Z,8.48
2022-10-18T01:59:59.294Z,7.40
2022-10-18T02:02:41.452Z,10.00
2022-10-18T02:05:18.730Z,7.53
2022-10-18T02:08:00.341Z,8.77
2022-10-18T02:10:43.404Z,6.78
2022-10-18T02:13:12.348Z,7.50
2022-10-18T02:15:44.744Z,9.35
2022-10-18T02:18:19.272Z,6.72
2022-10-18T02:20:48.736Z,8.73
2022-10-18T02:23:21.739Z,7.75
2022-10-18T02:25:49.535Z,7.80
2022-10-18T02:28:17.029Z,8.00
2022-10-18T02:30:52.473Z,6.68
2022-10-18T02:33:28.575Z,6.07
2022-10-18T02:36:02.993Z,8.48
2022-10-18T02:38:32.536Z,6.00
2022-10-18T02:41:00.577Z,5.53
2022-10-18T02:43:27.995Z,5.68
2022-10-18T02:45:55.542Z,4.50
2022-10-18T02:48:24.307Z,6.35
2022-10-18T02:50:51.741Z,4.63
2022-10-18T02:53:19.177Z,5.90
2022-10-18T02:55:46.638Z,7.15
2022-10-18T02:58:14.675Z,5.13
2022-10-18T03:00:42.086Z,4.30
2022-10-18T03:03:09.481Z,4.70
2022-10-18T03:05:38.272Z,5.10
2022-10-18T03:08:05.839Z,13.48
2022-10-18T03:10:33.248Z,4.80
2022-10-18T03:13:00.715Z,4.38
2022-10-18T03:15:28.144Z,4.07
2022-10-18T03:17:55.616Z,5.90
2022-10-18T03:20:23.308Z,6.90
2022-10-18T03:22:52.047Z,4.97
2022-10-18T03:25:19.477Z,4.50
2022-10-18T03:27:46.896Z,3.08
2022-10-18T03:30:14.440Z,3.13
2022-10-18T03:32:42.044Z,4.20
2022-10-18T03:35:10.471Z,3.27
2022-10-18T03:37:37.944Z,4.97
2022-10-18T03:40:08.632Z,4.90
2022-10-18T03:42:36.052Z,5.72
2022-10-18T03:45:03.503Z,3.92
2022-10-18T03:47:30.938Z,4.23
2022-10-18T03:49:59.052Z,5.05
2022-10-18T03:52:26.512Z,5.90
2022-10-18T03:54:54.035Z,6.15
2022-10-18T03:57:22.871Z,4.60
2022-10-18T03:59:50.312Z,4.20
2022-10-18T04:02:17.841Z,5.93
2022-10-18T04:04:45.279Z,5.95
2022-10-18T04:07:12.710Z,5.45
2022-10-18T04:09:40.154Z,6.28
2022-10-18T04:12:07.664Z,7.33
2022-10-18T04:14:36.463Z,7.47
2022-10-18T04:17:04.711Z,34.67
2022-10-18T04:19:32.097Z,25.40
2022-10-18T04:21:59.532Z,25.35
2022-10-18T04:24:26.906Z,12.63
2022-10-18T04:26:54.309Z,11.55
2022-10-18T04:29:21.924Z,9.35
2022-10-18T04:31:50.697Z,89.85
2022-10-18T04:34:18.180Z,63.83
2022-10-18T04:36:45.581Z,127.00
2022-10-18T04:39:12.987Z,344.55
2022-10-18T04:41:40.504Z,175.75
2022-10-18T04:44:07.964Z,249.32
2022-10-18T04:46:35.602Z,107.35
2022-10-18T04:49:04.600Z,234.53
2022-10-18T04:51:32.005Z,290.13
2022-10-18T04:53:59.422Z,250.90
2022-10-18T04:56:26.832Z,305.63
2022-10-18T04:58:54.273Z,318.05
2022-10-18T05:01:21.718Z,440.83
2022-10-18T05:03:52.979Z,390.92
2022-10-18T05:06:21.874Z,224.85
2022-10-18T05:08:49.338Z,141.65
2022-10-18T05:11:16.910Z,217.93
2022-10-18T05:13:47.173Z,325.63
2022-10-18T05:16:17.724Z,263.58
2022-10-18T05:18:45.188Z,288.60
2022-10-18T05:21:12.662Z,268.55
2022-10-18T05:23:41.420Z,221.13
2022-10-18T05:26:09.603Z,204.37
2022-10-18T05:28:40.096Z,280.70
2022-10-18T05:31:09.481Z,290.52
2022-10-18T05:33:37.132Z,268.65
2022-10-18T05:36:05.031Z,191.57
2022-10-18T05:38:32.649Z,256.37
2022-10-18T05:41:05.264Z,257.10
2022-10-18T05:43:32.705Z,264.40
2022-10-18T05:46:00.128Z,54.15
2022-10-18T05:48:27.537Z,76.35
2022-10-18T05:50:54.928Z,69.87
2022-10-18T05:53:36.171Z,66.35
2022-10-18T05:56:06.863Z,83.35
2022-10-18T05:58:34.850Z,69.47
2022-10-18T06:01:03.067Z,40.13
2022-10-18T06:03:31.369Z,54.07
2022-10-18T06:06:02.407Z,35.88
2022-10-18T06:08:29.917Z,30.33
2022-10-18T06:10:57.635Z,25.83
2022-10-18T06:13:26.380Z,26.67
2022-10-18T06:15:56.820Z,32.33
2022-10-18T06:18:24.255Z,24.95
2022-10-18T06:20:57.436Z,25.77
2022-10-18T06:23:24.919Z,43.25
2022-10-18T06:25:52.335Z,34.83
2022-10-18T06:28:19.990Z,40.33
2022-10-18T06:30:48.823Z,33.65
2022-10-18T06:33:16.304Z,60.33
2022-10-18T06:35:43.684Z,41.15
2022-10-18T06:38:11.104Z,22.33
2022-10-18T06:40:38.613Z,31.00
2022-10-18T06:43:20.165Z,32.25
2022-10-18T06:45:50.461Z,20.95
2022-10-18T06:50:56.711Z,20.38
2022-10-18T06:53:24.581Z,19.67
2022-10-18T06:55:52.077Z,16.30
2022-10-18T06:58:19.807Z,18.67
2022-10-18T07:00:47.491Z,16.38
2022-10-18T07:03:16.250Z,16.55
2022-10-18T07:05:43.964Z,17.83
2022-10-18T07:08:11.380Z,16.23
2022-10-18T07:10:38.779Z,17.15
2022-10-18T07:13:30.901Z,13.88
2022-10-18T07:16:06.221Z,15.02
2022-10-18T07:18:36.530Z,17.83
2022-10-18T07:21:05.543Z,16.27
2022-10-18T07:23:34.705Z,15.15
2022-10-18T07:26:02.897Z,16.13
2022-10-18T07:28:31.113Z,14.82
2022-10-18T07:31:02.401Z,15.10
2022-10-18T07:33:34.716Z,12.88
2022-10-18T07:36:02.915Z,12.40
2022-10-18T07:38:30.344Z,9.80
2022-10-18T07:40:58.443Z,11.32
2022-10-18T07:43:25.888Z,11.87
2022-10-18T07:45:53.884Z,11.82
2022-10-18T07:48:21.359Z,11.40
2022-10-18T07:50:50.196Z,13.63
2022-10-18T07:53:17.656Z,14.02
2022-10-18T07:55:45.547Z,13.07
2022-10-18T07:58:13.115Z,12.55
2022-10-18T08:00:40.975Z,12.48
2022-10-18T08:03:08.506Z,12.55
2022-10-18T08:05:35.918Z,11.98
2022-10-18T08:08:07.935Z,12.20
2022-10-18T08:10:36.603Z,15.23
2022-10-18T08:13:04.015Z,13.90
2022-10-18T08:15:31.460Z,13.43
2022-10-18T08:17:58.905Z,10.68
2022-10-18T08:20:30.743Z,13.77
2022-10-18T08:23:00.384Z,11.25
2022-10-18T08:25:29.607Z,11.40
2022-10-18T08:27:57.276Z,12.00
2022-10-18T08:30:24.690Z,9.90
2022-10-18T08:32:52.101Z,11.70
2022-10-18T08:35:19.620Z,13.40
2022-10-18T08:37:48.348Z,14.80
2022-10-18T08:40:16.534Z,16.02
2022-10-18T08:42:59.064Z,12.93
2022-10-18T08:45:41.818Z,10.60
2022-10-18T08:48:22.619Z,10.15
2022-10-18T08:50:51.766Z,8.85
2022-10-18T08:53:25.543Z,8.70
2022-10-18T08:55:58.753Z,8.77
2022-10-18T08:58:31.990Z,8.00
2022-10-18T09:01:08.315Z,6.65
2022-10-18T09:03:56.757Z,8.73
2022-10-18T09:06:30.030Z,6.65
2022-10-18T09:09:15.245Z,8.25
2022-10-18T09:11:58.140Z,6.17
2022-10-18T09:14:51.101Z,7.63
2022-10-18T09:17:26.051Z,8.02
2022-10-18T09:20:03.917Z,7.63
2022-10-18T09:22:43.428Z,10.88
2022-10-18T09:25:19.797Z,10.57
2022-10-18T09:27:53.359Z,9.60
2022-10-18T09:30:34.452Z,7.75
2022-10-18T09:33:15.839Z,7.05
2022-10-18T09:35:45.612Z,7.60
2022-10-18T09:38:16.949Z,11.07
2022-10-18T09:40:51.620Z,7.72
2022-10-18T09:43:23.811Z,8.45
2022-10-18T09:45:55.345Z,5.80
2022-10-18T09:48:27.952Z,7.68
2022-10-18T09:50:59.505Z,7.60
2022-10-18T09:53:37.380Z,7.30
2022-10-18T09:56:07.744Z,8.07
2022-10-18T09:58:43.136Z,6.10
2022-10-18T10:01:15.146Z,7.07
2022-10-18T10:03:43.166Z,6.83
2022-10-18T10:06:24.047Z,6.72
2022-10-18T10:08:56.533Z,7.82
2022-10-18T10:11:29.490Z,7.18
2022-10-18T10:13:58.667Z,8.50
2022-10-18T10:16:27.968Z,5.87
2022-10-18T10:18:55.935Z,7.63
2022-10-18T10:21:23.536Z,5.00
2022-10-18T10:23:55.380Z,6.70
2022-10-18T10:26:25.464Z,7.90
2022-10-18T10:28:53.012Z,9.73
2022-10-18T10:31:29.930Z,7.60
2022-10-18T10:34:02.434Z,6.88
2022-10-18T10:36:31.020Z,8.07
2022-10-18T10:39:11.827Z,8.45
2022-10-18T10:41:41.818Z,9.27
2022-10-18T10:44:17.002Z,9.70
2022-10-18T10:46:46.471Z,9.77
2022-10-18T10:49:39.158Z,6.80
2022-10-18T10:52:15.426Z,8.48
2022-10-18T10:54:55.743Z,8.27
2022-10-18T10:57:29.826Z,9.70
2022-10-18T10:59:59.542Z,8.88
2022-10-18T11:02:32.346Z,8.60
2022-10-18T11:05:22.775Z,8.63
2022-10-18T11:07:56.126Z,10.33
2022-10-18T11:10:29.135Z,10.43
2022-10-18T11:13:03.801Z,11.55
2022-10-18T11:15:36.553Z,12.85
2022-10-18T11:18:14.315Z,12.10
2022-10-18T11:20:44.196Z,14.40
2022-10-18T11:23:13.547Z,12.23
2022-10-18T11:26:12.185Z,16.35
2022-10-18T11:28:59.024Z,14.88
2022-10-18T11:31:33.701Z,18.00
2022-10-18T11:34:18.496Z,14.33
2022-10-18T11:37:15.578Z,18.77
2022-10-18T11:39:58.069Z,20.67
2022-10-18T11:42:36.705Z,20.95
2022-10-18T11:45:15.824Z,21.92
2022-10-18T11:47:53.555Z,23.07
2022-10-18T11:50:34.169Z,31.13
2022-10-18T11:53:10.789Z,24.90
2022-10-18T11:55:45.824Z,25.23
2022-10-18T11:58:33.000Z,23.25
2022-10-18T12:01:13.346Z,23.00
2022-10-18T12:03:52.631Z,25.10
2022-10-18T12:06:24.742Z,27.88
2022-10-18T12:08:56.845Z,26.58
2022-10-18T12:11:29.715Z,29.58
2022-10-18T12:13:59.968Z,20.57
2022-10-18T12:16:49.963Z,33.13
2022-10-18T12:19:25.250Z,31.05
2022-10-18T12:21:57.254Z,25.13
2022-10-18T12:24:28.849Z,29.13
2022-10-18T12:26:59.999Z,25.33
2022-10-18T12:29:33.976Z,28.73
2022-10-18T12:32:06.760Z,24.27
2022-10-18T12:34:38.121Z,21.02
2022-10-18T12:37:24.212Z,22.75
2022-10-18T12:40:12.498Z,23.87
2022-10-18T12:42:44.370Z,17.90
2022-10-18T12:45:25.627Z,23.75
2022-10-18T12:47:53.868Z,22.67
2022-10-18T12:50:30.395Z,22.15
2022-10-18T12:53:08.661Z,17.50
2022-10-18T12:55:38.808Z,19.95
2022-10-18T12:58:23.492Z,24.63
2022-10-18T13:01:01.076Z,22.17
2022-10-18T13:04:00.885Z,23.13
2022-10-18T13:07:07.806Z,23.43
2022-10-18T13:09:38.096Z,23.65
2022-10-18T13:12:38.782Z,20.08
2022-10-18T13:15:26.553Z,22.58
2022-10-18T13:18:01.024Z,22.23
2022-10-18T13:20:38.514Z,22.10
2022-10-18T13:23:20.609Z,21.05
2022-10-18T13:25:57.673Z,23.58
2022-10-18T13:28:31.788Z,25.38
2022-10-18T13:31:09.684Z,22.92
2022-10-18T13:33:39.550Z,21.07
2022-10-18T13:36:23.131Z,22.75
2022-10-18T13:39:02.903Z,20.13
2022-10-18T13:41:35.469Z,21.65
2022-10-18T13:44:25.485Z,18.55
2022-10-18T13:47:35.975Z,32.37
2022-10-18T13:50:41.376Z,21.08
2022-10-18T13:53:44.096Z,22.20
2022-10-18T13:56:26.165Z,20.67
2022-10-18T13:59:14.977Z,20.33
2022-10-18T14:01:53.755Z,23.27
2022-10-18T14:04:38.708Z,26.55
2022-10-18T14:07:08.449Z,27.52
2022-10-18T14:09:45.167Z,25.20
2022-10-18T14:12:23.733Z,20.85
2022-10-18T14:14:58.780Z,21.80
2022-10-18T14:17:34.853Z,18.08
2022-10-18T14:20:13.993Z,19.50
2022-10-18T14:22:46.687Z,19.92
2022-10-18T14:25:22.174Z,16.70
2022-10-18T14:27:52.325Z,14.77
2022-10-18T14:30:23.848Z,17.95
2022-10-18T14:32:54.361Z,17.65
2022-10-18T14:35:38.648Z,18.45
2022-10-18T14:38:14.220Z,19.10
2022-10-18T14:40:42.113Z,19.23
2022-10-18T14:43:14.279Z,20.67
2022-10-18T14:45:43.817Z,20.58
2022-10-18T14:48:16.803Z,18.52
2022-10-18T14:50:46.968Z,20.67
2022-10-18T14:53:20.508Z,19.03
2022-10-18T14:55:55.543Z,24.05
2022-10-18T14:58:23.496Z,22.33
2022-10-18T15:00:52.222Z,23.20
2022-10-18T15:03:19.818Z,22.40
2022-10-18T15:05:55.353Z,20.90
2022-10-18T15:08:24.272Z,21.80
2022-10-18T15:10:52.204Z,18.05
2022-10-18T15:13:19.863Z,20.67
2022-10-18T15:15:47.755Z,20.85
2022-10-18T15:18:22.623Z,21.43
2022-10-18T15:21:08.505Z,27.15
2022-10-18T15:23:35.994Z,26.08
2022-10-18T15:26:06.549Z,22.70
2022-10-18T15:28:37.710Z,22.15
2022-10-18T15:31:05.530Z,21.37
2022-10-18T15:33:34.694Z,22.50
2022-10-18T15:36:10.980Z,22.73
2022-10-18T15:38:39.511Z,24.70
2022-10-18T15:41:37.667Z,23.17
2022-10-18T15:44:13.272Z,27.07
2022-10-18T15:46:41.644Z,29.88
2022-10-18T15:49:50.804Z,32.88
2022-10-18T15:52:51.528Z,28.33
2022-10-18T15:55:47.612Z,35.47
2022-10-18T15:58:19.850Z,34.90
2022-10-18T16:00:48.776Z,34.88
2022-10-18T16:03:17.958Z,37.25
2022-10-18T16:05:46.820Z,29.13
2022-10-18T16:08:20.703Z,37.70
2022-10-18T16:10:48.224Z,35.60
2022-10-18T16:13:15.658Z,34.92
2022-10-18T16:15:43.164Z,36.60
2022-10-18T16:18:15.124Z,37.88
2022-10-18T16:20:42.765Z,41.78
2022-10-18T16:23:17.634Z,33.23
2022-10-18T16:25:45.260Z,37.08
2022-10-18T16:28:18.138Z,39.28
2022-10-18T16:30:52.828Z,47.53
2022-10-18T16:33:21.631Z,39.13
2022-10-18T16:35:49.587Z,39.57
2022-10-18T16:38:27.237Z,44.17
2022-10-18T16:40:57.548Z,43.22
2022-10-18T16:43:25.717Z,41.85
2022-10-18T16:45:54.690Z,42.50
2022-10-18T16:48:24.414Z,43.00
2022-10-18T16:50:53.026Z,43.38
2022-10-18T16:53:23.694Z,43.30
2022-10-18T16:55:54.375Z,45.83
2022-10-18T17:00:51.371Z,49.23
2022-10-18T17:03:18.894Z,54.42
2022-10-18T17:05:46.343Z,51.03
2022-10-18T17:08:18.925Z,50.15
2022-10-18T17:10:49.536Z,47.70
2022-10-18T17:13:17.634Z,44.73
2022-10-18T17:15:45.310Z,46.10
2022-10-18T17:18:14.767Z,49.47
2022-10-18T17:20:42.650Z,57.47
2022-10-18T17:23:10.186Z,47.45
2022-10-18T17:25:46.255Z,52.87
2022-10-18T17:28:26.665Z,55.50
2022-10-18T17:30:54.097Z,51.55
2022-10-18T17:33:21.512Z,45.38
2022-10-18T17:35:49.479Z,51.22
2022-10-18T17:38:17.107Z,51.90
2022-10-18T17:40:44.752Z,48.13
2022-10-18T17:43:13.569Z,48.60
2022-10-18T17:45:49.091Z,54.88
2022-10-18T17:48:16.523Z,48.25
2022-10-18T17:50:43.951Z,49.37
2022-10-18T17:53:11.927Z,44.17
2022-10-18T17:55:39.720Z,49.00
2022-10-18T17:58:07.153Z,50.75
2022-10-18T18:00:34.592Z,48.28
2022-10-18T18:03:03.457Z,53.33
2022-10-18T18:05:32.289Z,52.03
2022-10-18T18:08:03.669Z,41.88
2022-10-18T18:10:33.174Z,34.95
2022-10-18T18:13:00.700Z,31.58
2022-10-18T18:15:28.259Z,38.53
2022-10-18T18:17:57.704Z,36.13
2022-10-18T18:20:27.315Z,44.97
2022-10-18T18:22:54.740Z,41.22
2022-10-18T18:25:22.167Z,37.35
2022-10-18T18:27:49.601Z,28.30
2022-10-18T18:30:17.800Z,23.30
2022-10-18T18:32:45.392Z,29.52
2022-10-18T18:35:12.922Z,27.38
2022-10-18T18:37:41.761Z,32.83
2022-10-18T18:40:09.873Z,31.63
2022-10-18T18:42:37.303Z,33.33
2022-10-18T18:45:05.242Z,34.60
2022-10-18T18:47:35.300Z,39.03
2022-10-18T18:50:02.884Z,31.75
2022-10-18T18:52:30.558Z,25.57
2022-10-18T18:54:59.540Z,39.88
2022-10-18T18:57:26.993Z,38.10
2022-10-18T18:59:54.424Z,42.70
2022-10-18T19:02:21.856Z,46.97
2022-10-18T19:04:50.600Z,53.27
2022-10-18T19:07:18.256Z,49.88
2022-10-18T19:09:46.888Z,47.47
2022-10-18T19:12:20.416Z,50.30
2022-10-18T19:14:48.856Z,45.63
2022-10-18T19:17:16.259Z,44.33
2022-10-18T19:19:43.719Z,43.80
2022-10-18T19:22:11.125Z,39.20
2022-10-18T19:24:38.600Z,46.92
2022-10-18T19:27:09.529Z,38.67
2022-10-18T19:29:40.232Z,41.47
2022-10-18T19:32:11.852Z,40.00
2022-10-18T19:34:39.449Z,41.17
2022-10-18T19:37:07.850Z,44.75
2022-10-18T19:39:36.365Z,48.13
2022-10-18T19:42:06.410Z,48.40
2022-10-18T19:44:36.424Z,43.42
2022-10-18T19:47:06.584Z,46.97
2022-10-18T19:49:34.112Z,49.05
2022-10-18T19:52:01.542Z,41.78
2022-10-18T19:54:29.234Z,39.47
2022-10-18T19:56:56.631Z,48.75
2022-10-18T19:59:24.986Z,44.25
2022-10-18T20:01:52.478Z,47.50
2022-10-18T20:04:21.264Z,41.45
2022-10-18T20:06:48.679Z,46.80
2022-10-18T20:09:19.567Z,44.90
2022-10-18T20:11:48.347Z,56.22
2022-10-18T20:14:15.866Z,45.85
2022-10-18T20:16:43.333Z,47.72
2022-10-18T20:19:11.598Z,44.13
2022-10-18T20:21:40.350Z,44.60
2022-10-18T20:24:09.183Z,39.63
2022-10-18T20:26:36.692Z,47.22
2022-10-18T20:29:05.202Z,44.45
2022-10-18T20:31:35.413Z,47.40
2022-10-18T20:34:05.660Z,43.83
2022-10-18T20:36:33.828Z,41.95
2022-10-18T20:39:03.141Z,43.45
2022-10-18T20:41:31.763Z,49.75
2022-10-18T20:44:00.750Z,45.23
2022-10-18T20:46:30.782Z,40.67
2022-10-18T20:48:58.544Z,49.55
2022-10-18T20:51:26.044Z,43.28
2022-10-18T20:53:54.304Z,47.45
2022-10-18T20:56:26.286Z,41.67
2022-10-18T20:58:56.148Z,43.63
2022-10-18T21:01:25.615Z,48.85
2022-10-18T21:03:54.729Z,44.05
2022-10-18T21:06:24.284Z,42.88
2022-10-18T21:08:54.293Z,37.37
2022-10-18T21:11:23.961Z,36.80
2022-10-18T21:13:52.178Z,41.85
2022-10-18T21:16:19.639Z,39.50
2022-10-18T21:18:47.551Z,41.33
2022-10-18T21:21:16.659Z,43.00
2022-10-18T21:23:44.421Z,36.67
2022-10-18T21:26:15.195Z,30.88
2022-10-18T21:28:44.039Z,32.97
2022-10-18T21:31:14.416Z,40.15
2022-10-18T21:33:42.998Z,84.90
2022-10-18T21:36:11.332Z,56.17
2022-10-18T21:38:39.382Z,74.90
2022-10-18T21:41:11.270Z,125.68
2022-10-18T21:43:40.799Z,295.65
2022-10-18T21:46:10.899Z,348.07
2022-10-18T21:48:38.927Z,121.88
2022-10-18T21:51:08.050Z,213.23
2022-10-18T21:53:36.015Z,263.02
2022-10-18T21:56:07.636Z,198.95
2022-10-18T21:58:35.870Z,133.87
2022-10-18T22:01:09.362Z,137.82
2022-10-18T22:03:37.171Z,190.55
2022-10-18T22:06:07.642Z,161.10
2022-10-18T22:08:35.388Z,195.32
2022-10-18T22:11:03.640Z,211.13
2022-10-18T22:13:31.436Z,133.48
2022-10-18T22:16:01.739Z,167.77
2022-10-18T22:18:30.926Z,246.63
2022-10-18T22:21:00.581Z,300.75
2022-10-18T22:23:32.794Z,169.70
2022-10-18T22:26:03.647Z,202.02
2022-10-18T22:28:31.168Z,179.82
2022-10-18T22:30:59.016Z,137.20
2022-10-18T22:33:26.514Z,146.65
2022-10-18T22:35:55.382Z,119.40
2022-10-18T22:38:22.807Z,156.15
2022-10-18T22:40:51.685Z,111.05
2022-10-18T22:43:19.694Z,74.47
2022-10-18T22:45:47.121Z,152.80
2022-10-18T22:48:14.552Z,99.57
2022-10-18T22:50:41.956Z,83.03
2022-10-18T22:53:10.700Z,60.22
2022-10-18T22:55:38.112Z,68.68
2022-10-18T22:58:05.519Z,35.47
2022-10-18T23:00:32.970Z,174.20
2022-10-18T23:03:00.540Z,89.82
2022-10-18T23:05:27.948Z,98.55
2022-10-18T23:07:55.365Z,64.80
2022-10-18T23:10:24.139Z,174.70
2022-10-18T23:12:51.584Z,133.57
2022-10-18T23:15:19.002Z,86.38
2022-10-18T23:17:46.756Z,54.08
2022-10-18T23:20:14.196Z,138.45
2022-10-18T23:22:41.620Z,67.85
2022-10-18T23:25:09.850Z,98.57
2022-10-18T23:27:38.649Z,94.13
2022-10-18T23:30:07.432Z,74.80
2022-10-18T23:32:35.107Z,72.55
2022-10-18T23:35:02.758Z,117.32
2022-10-18T23:37:30.251Z,49.03
2022-10-18T23:39:57.820Z,83.03
2022-10-18T23:42:25.357Z,61.28
2022-10-18T23:44:54.116Z,55.92
2022-10-18T23:47:21.575Z,63.10
2022-10-18T23:49:48.997Z,58.53
2022-10-18T23:52:16.452Z,133.48
2022-10-18T23:57:13.165Z,131.55
2022-10-18T23:59:40.800Z,179.27
